createdAt,value
2023-03-30T00:00:21.585Z,13.10
2023-03-30T00:02:53.178Z,15.60
2023-03-30T00:05:20.459Z,16.27
2023-03-30T00:07:47.567Z,18.80
2023-03-30T00:10:17.894Z,23.02
2023-03-30T00:12:47.369Z,27.45
2023-03-30T00:15:15.640Z,22.63
2023-03-30T00:17:42.685Z,19.37
2023-03-30T00:20:12.012Z,16.10
2023-03-30T00:22:42.659Z,15.18
2023-03-30T00:25:13.995Z,14.32
2023-03-30T00:27:41.256Z,14.85
2023-03-30T00:30:13.507Z,15.23
2023-03-30T00:32:40.830Z,12.82
2023-03-30T00:35:08.121Z,14.20
2023-03-30T00:37:37.489Z,12.95
2023-03-30T00:40:08.250Z,12.82
2023-03-30T00:42:38.492Z,13.65
2023-03-30T00:45:23.956Z,12.30
2023-03-30T00:48:15.503Z,10.73
2023-03-30T00:50:59.876Z,6.90
2023-03-30T00:53:40.555Z,13.00
2023-03-30T00:56:08.895Z,7.43
2023-03-30T00:58:37.515Z,7.43
2023-03-30T01:01:06.089Z,7.72
2023-03-30T01:03:43.915Z,12.68
2023-03-30T01:06:11.857Z,9.23
2023-03-30T01:08:41.167Z,9.40
2023-03-30T01:11:08.489Z,18.10
2023-03-30T01:13:37.625Z,10.45
2023-03-30T01:16:23.055Z,8.13
2023-03-30T01:19:11.699Z,10.45
2023-03-30T01:21:58.978Z,11.80
2023-03-30T01:24:34.968Z,11.60
2023-03-30T01:27:11.856Z,11.18
2023-03-30T01:29:45.840Z,11.95
2023-03-30T01:32:34.432Z,8.40
2023-03-30T01:35:08.497Z,9.57
2023-03-30T01:38:02.411Z,11.57
2023-03-30T01:40:39.356Z,8.93
2023-03-30T01:43:13.564Z,9.43
2023-03-30T01:45:46.701Z,10.55
2023-03-30T01:48:29.512Z,9.57
2023-03-30T01:50:58.407Z,8.63
2023-03-30T01:53:35.745Z,9.88
2023-03-30T01:56:19.652Z,11.38
2023-03-30T01:59:02.156Z,11.50
2023-03-30T02:01:29.119Z,8.50
2023-03-30T02:03:57.977Z,8.55
2023-03-30T02:06:39.976Z,6.72
2023-03-30T02:09:08.297Z,8.25
2023-03-30T02:11:35.356Z,9.70
2023-03-30T02:14:02.539Z,9.50
2023-03-30T02:16:34.801Z,10.45
2023-03-30T02:19:02.272Z,9.90
2023-03-30T02:21:30.192Z,6.90
2023-03-30T02:23:57.733Z,9.32
2023-03-30T02:26:25.050Z,7.85
2023-03-30T02:28:52.280Z,10.98
2023-03-30T02:31:19.279Z,9.35
2023-03-30T02:34:15.892Z,9.93
2023-03-30T02:37:10.194Z,6.05
2023-03-30T02:39:47.951Z,10.35
2023-03-30T02:42:27.199Z,9.38
2023-03-30T02:45:12.506Z,8.88
2023-03-30T02:47:46.382Z,7.50
2023-03-30T02:50:33.824Z,8.43
2023-03-30T02:53:10.530Z,9.55
2023-03-30T02:55:42.174Z,8.85
2023-03-30T02:58:28.800Z,9.40
2023-03-30T03:01:08.820Z,8.48
2023-03-30T03:03:42.097Z,10.88
2023-03-30T03:06:09.672Z,8.85
2023-03-30T03:08:38.008Z,9.20
2023-03-30T03:11:05.485Z,11.32
2023-03-30T03:13:32.928Z,12.45
2023-03-30T03:16:04.108Z,9.68
2023-03-30T03:18:31.505Z,8.30
2023-03-30T03:20:59.027Z,10.05
2023-03-30T03:23:26.173Z,15.38
2023-03-30T03:25:53.095Z,8.18
2023-03-30T03:28:20.047Z,6.85
2023-03-30T03:30:48.651Z,10.70
2023-03-30T03:33:15.676Z,10.05
2023-03-30T03:35:45.920Z,11.68
2023-03-30T03:38:14.060Z,10.55
2023-03-30T03:40:41.342Z,12.88
2023-03-30T03:43:08.269Z,10.18
2023-03-30T03:45:35.324Z,12.30
2023-03-30T03:48:02.286Z,12.68
2023-03-30T03:50:29.194Z,11.13
2023-03-30T03:52:56.332Z,10.98
2023-03-30T03:55:23.873Z,10.52
2023-03-30T03:57:51.128Z,11.93
2023-03-30T04:00:18.606Z,10.63
2023-03-30T04:02:46.022Z,11.20
2023-03-30T04:05:13.324Z,11.43
2023-03-30T04:07:40.286Z,10.68
2023-03-30T04:10:07.737Z,10.80
2023-03-30T04:12:34.855Z,11.90
2023-03-30T04:15:01.873Z,14.10
2023-03-30T04:17:28.910Z,13.43
2023-03-30T04:19:56.628Z,14.27
2023-03-30T04:22:26.617Z,12.82
2023-03-30T04:24:53.989Z,21.25
2023-03-30T04:27:20.957Z,13.00
2023-03-30T04:29:47.818Z,15.50
2023-03-30T04:32:21.036Z,13.40
2023-03-30T04:34:48.162Z,12.60
2023-03-30T04:37:18.310Z,11.98
2023-03-30T04:39:45.491Z,62.42
2023-03-30T04:42:14.437Z,16.02
2023-03-30T04:44:41.354Z,9.13
2023-03-30T04:47:08.290Z,10.48
2023-03-30T04:49:35.295Z,19.80
2023-03-30T04:52:02.314Z,13.40
2023-03-30T04:54:32.036Z,28.98
2023-03-30T04:57:00.179Z,25.00
2023-03-30T04:59:28.164Z,22.08
2023-03-30T05:01:55.326Z,25.63
2023-03-30T05:04:22.357Z,21.90
2023-03-30T05:06:49.908Z,22.23
2023-03-30T05:09:17.209Z,22.63
2023-03-30T05:11:44.208Z,22.42
2023-03-30T05:14:11.152Z,14.50
2023-03-30T05:16:38.154Z,16.13
2023-03-30T05:19:05.169Z,22.15
2023-03-30T05:21:32.120Z,31.02
2023-03-30T05:23:59.067Z,26.77
2023-03-30T05:26:26.555Z,21.08
2023-03-30T05:28:53.826Z,17.20
2023-03-30T05:31:21.141Z,15.98
2023-03-30T05:33:48.214Z,15.55
2023-03-30T05:36:15.938Z,13.02
2023-03-30T05:38:43.014Z,14.05
2023-03-30T05:41:10.190Z,14.35
2023-03-30T05:43:37.246Z,30.50
2023-03-30T05:46:04.591Z,14.18
2023-03-30T05:48:31.671Z,12.07
2023-03-30T05:51:00.425Z,10.32
2023-03-30T05:53:28.790Z,10.90
2023-03-30T05:55:56.209Z,9.00
2023-03-30T05:58:35.484Z,14.00
2023-03-30T06:01:03.823Z,10.15
2023-03-30T06:03:31.130Z,10.25
2023-03-30T06:05:59.647Z,11.23
2023-03-30T06:08:29.857Z,8.90
2023-03-30T06:11:01.195Z,9.82
2023-03-30T06:13:28.372Z,15.48
2023-03-30T06:15:55.623Z,15.55
2023-03-30T06:18:22.956Z,13.52
2023-03-30T06:20:52.635Z,11.75
2023-03-30T06:23:19.850Z,10.35
2023-03-30T06:25:56.919Z,10.15
2023-03-30T06:28:24.872Z,10.55
2023-03-30T06:30:52.262Z,16.42
2023-03-30T06:33:19.434Z,13.50
2023-03-30T06:35:48.775Z,10.18
2023-03-30T06:38:16.258Z,13.57
2023-03-30T06:40:43.787Z,9.25
2023-03-30T06:43:18.187Z,9.93
2023-03-30T06:45:51.186Z,9.35
2023-03-30T06:48:19.845Z,9.68
2023-03-30T06:50:49.521Z,9.85
2023-03-30T06:53:16.659Z,13.13
2023-03-30T06:55:43.706Z,12.27
2023-03-30T06:58:10.812Z,24.58
2023-03-30T07:00:38.131Z,15.15
2023-03-30T07:03:07.252Z,9.80
2023-03-30T07:05:34.528Z,12.55
2023-03-30T07:08:01.496Z,12.45
2023-03-30T07:10:28.457Z,7.38
2023-03-30T07:12:55.551Z,12.82
2023-03-30T07:15:22.806Z,15.68
2023-03-30T07:17:49.881Z,10.00
2023-03-30T07:20:16.983Z,9.38
2023-03-30T07:22:43.855Z,9.65
2023-03-30T07:25:10.991Z,16.73
2023-03-30T07:27:38.416Z,13.75
2023-03-30T07:30:17.973Z,14.38
2023-03-30T07:32:50.705Z,16.10
2023-03-30T07:35:18.664Z,32.95
2023-03-30T07:37:50.465Z,10.75
2023-03-30T07:40:18.867Z,14.20
2023-03-30T07:42:45.944Z,15.07
2023-03-30T07:45:16.131Z,12.15
2023-03-30T07:47:43.595Z,12.77
2023-03-30T07:50:10.871Z,11.60
2023-03-30T07:52:38.165Z,10.48
2023-03-30T07:55:05.543Z,10.05
2023-03-30T07:57:32.602Z,9.68
2023-03-30T07:59:59.656Z,10.10
2023-03-30T08:02:27.472Z,8.18
2023-03-30T08:04:54.674Z,9.50
2023-03-30T08:07:21.736Z,10.98
2023-03-30T08:09:48.847Z,11.52
2023-03-30T08:12:16.060Z,11.07
2023-03-30T08:14:50.180Z,10.95
2023-03-30T08:17:19.437Z,9.70
2023-03-30T08:19:47.056Z,11.93
2023-03-30T08:22:14.303Z,13.32
2023-03-30T08:24:41.349Z,14.35
2023-03-30T08:27:08.281Z,13.88
2023-03-30T08:29:35.631Z,16.02
2023-03-30T08:32:02.600Z,12.23
2023-03-30T08:34:29.961Z,13.13
2023-03-30T08:36:58.219Z,11.45
2023-03-30T08:39:25.509Z,9.70
2023-03-30T08:42:28.748Z,10.75
2023-03-30T08:44:56.830Z,13.95
2023-03-30T08:47:44.618Z,17.77
2023-03-30T08:50:16.011Z,13.75
2023-03-30T08:52:43.272Z,14.70
2023-03-30T08:55:38.577Z,10.85
2023-03-30T08:58:27.434Z,10.77
2023-03-30T09:01:19.254Z,8.90
2023-03-30T09:03:49.426Z,11.95
2023-03-30T09:06:43.923Z,13.63
2023-03-30T09:09:17.051Z,9.73
2023-03-30T09:11:44.085Z,11.27
2023-03-30T09:14:35.232Z,11.13
2023-03-30T09:17:15.483Z,8.85
2023-03-30T09:20:00.713Z,13.32
2023-03-30T09:22:33.436Z,10.30
2023-03-30T09:25:01.590Z,11.20
2023-03-30T09:28:07.279Z,13.95
2023-03-30T09:30:52.301Z,11.18
2023-03-30T09:33:34.736Z,26.77
2023-03-30T09:36:15.053Z,11.77
2023-03-30T09:38:42.516Z,11.13
2023-03-30T09:41:24.690Z,12.57
2023-03-30T09:43:51.802Z,9.15
2023-03-30T09:46:18.966Z,9.75
2023-03-30T09:48:47.240Z,10.63
2023-03-30T09:51:19.379Z,10.97
2023-03-30T09:53:47.457Z,11.05
2023-03-30T09:56:26.577Z,12.32
2023-03-30T10:01:20.976Z,9.88
2023-03-30T10:04:07.800Z,12.10
2023-03-30T10:06:40.080Z,11.25
2023-03-30T10:09:09.360Z,12.32
2023-03-30T10:11:39.315Z,10.90
2023-03-30T10:14:08.237Z,9.80
2023-03-30T10:16:35.404Z,9.32
2023-03-30T10:19:07.732Z,17.55
2023-03-30T10:21:39.251Z,10.40
2023-03-30T10:24:29.664Z,11.60
2023-03-30T10:26:58.469Z,11.05
2023-03-30T10:29:27.169Z,23.60
2023-03-30T10:32:10.816Z,11.38
2023-03-30T10:34:54.439Z,10.65
2023-03-30T10:37:43.356Z,11.38
2023-03-30T10:40:20.069Z,11.27
2023-03-30T10:42:48.194Z,11.98
2023-03-30T10:45:18.392Z,12.60
2023-03-30T10:47:53.339Z,11.30
2023-03-30T10:50:41.885Z,12.43
2023-03-30T10:53:36.854Z,11.98
2023-03-30T10:56:07.357Z,11.50
2023-03-30T10:58:53.439Z,11.98
2023-03-30T11:01:26.654Z,13.35
2023-03-30T11:03:58.932Z,11.77
2023-03-30T11:06:46.432Z,14.38
2023-03-30T11:09:16.777Z,14.77
2023-03-30T11:11:55.519Z,10.55
2023-03-30T11:14:38.273Z,13.88
2023-03-30T11:17:40.831Z,11.25
2023-03-30T11:20:31.388Z,12.02
2023-03-30T11:23:28.363Z,13.18
2023-03-30T11:26:22.407Z,13.75
2023-03-30T11:29:12.807Z,14.48
2023-03-30T11:31:47.777Z,14.35
2023-03-30T11:34:35.718Z,14.82
2023-03-30T11:37:12.794Z,15.25
2023-03-30T11:39:42.111Z,11.32
2023-03-30T11:42:20.416Z,15.13
2023-03-30T11:44:47.403Z,15.65
2023-03-30T11:47:24.462Z,13.35
2023-03-30T11:50:12.174Z,13.98
2023-03-30T11:52:45.761Z,11.82
2023-03-30T11:55:26.889Z,11.57
2023-03-30T12:01:06.999Z,13.80
2023-03-30T12:06:31.386Z,15.77
2023-03-30T12:09:19.586Z,13.52
2023-03-30T12:11:52.255Z,18.63
2023-03-30T12:14:28.194Z,17.63
2023-03-30T12:16:57.156Z,15.77
2023-03-30T12:19:55.127Z,18.85
2023-03-30T12:22:46.308Z,23.17
2023-03-30T12:25:29.017Z,21.83
2023-03-30T12:27:58.784Z,19.00
2023-03-30T12:30:45.860Z,19.45
2023-03-30T12:33:36.667Z,20.00
2023-03-30T12:36:35.574Z,18.55
2023-03-30T12:41:38.387Z,22.40
2023-03-30T12:44:15.044Z,37.30
2023-03-30T12:47:12.194Z,29.13
2023-03-30T12:50:18.582Z,64.25
2023-03-30T12:53:11.865Z,24.90
2023-03-30T12:58:17.632Z,24.73
2023-03-30T13:00:51.220Z,25.33
2023-03-30T13:03:18.605Z,25.25
2023-03-30T13:05:45.622Z,23.77
2023-03-30T13:08:32.732Z,25.23
2023-03-30T13:11:16.673Z,27.67
2023-03-30T13:14:30.601Z,26.52
2023-03-30T13:17:00.554Z,27.77
2023-03-30T13:19:33.998Z,28.20
2023-03-30T13:22:13.395Z,29.80
2023-03-30T13:24:43.708Z,35.53
2023-03-30T13:27:19.625Z,28.98
2023-03-30T13:30:13.500Z,31.85
2023-03-30T13:32:40.445Z,34.33
2023-03-30T13:35:29.113Z,36.67
2023-03-30T13:38:14.813Z,34.60
2023-03-30T13:41:05.186Z,32.75
2023-03-30T13:43:56.649Z,33.88
2023-03-30T13:46:38.513Z,35.13
2023-03-30T13:49:31.894Z,31.77
2023-03-30T13:52:10.989Z,27.73
2023-03-30T13:57:14.572Z,30.27
2023-03-30T14:00:07.834Z,33.63
2023-03-30T14:02:38.741Z,35.17
2023-03-30T14:05:23.204Z,35.30
2023-03-30T14:07:50.369Z,33.03
2023-03-30T14:10:19.869Z,35.58
2023-03-30T14:15:34.207Z,39.45
2023-03-30T14:20:47.340Z,54.30
2023-03-30T14:23:55.292Z,55.20
2023-03-30T14:26:27.114Z,60.30
2023-03-30T14:28:58.027Z,59.38
2023-03-30T14:31:27.724Z,54.67
2023-03-30T14:33:54.913Z,56.63
2023-03-30T14:36:22.015Z,80.47
2023-03-30T14:38:52.752Z,66.30
2023-03-30T14:41:27.751Z,60.67
2023-03-30T14:44:03.126Z,59.60
2023-03-30T14:46:43.032Z,53.33
2023-03-30T14:49:19.950Z,36.35
2023-03-30T14:51:52.066Z,37.80
2023-03-30T14:54:23.884Z,42.05
2023-03-30T14:57:00.963Z,38.15
2023-03-30T14:59:28.149Z,32.08
2023-03-30T15:01:55.776Z,27.92
2023-03-30T15:04:29.291Z,28.92
2023-03-30T15:06:56.368Z,34.38
2023-03-30T15:09:24.343Z,32.60
2023-03-30T15:11:59.563Z,32.75
2023-03-30T15:14:27.725Z,27.38
2023-03-30T15:16:56.173Z,30.30
2023-03-30T15:22:34.549Z,29.27
2023-03-30T15:25:17.237Z,25.40
2023-03-30T15:27:46.025Z,26.48
2023-03-30T15:33:47.335Z,34.80
2023-03-30T15:36:26.143Z,33.38
2023-03-30T15:38:55.088Z,35.35
2023-03-30T15:41:23.734Z,35.60
2023-03-30T15:44:11.050Z,38.40
2023-03-30T15:46:38.865Z,43.53
2023-03-30T15:49:05.912Z,64.45
2023-03-30T15:51:38.166Z,39.58
2023-03-30T15:54:13.195Z,40.58
2023-03-30T15:57:17.106Z,42.50
2023-03-30T15:59:47.027Z,103.05
2023-03-30T16:02:25.512Z,162.60
2023-03-30T16:04:52.690Z,78.70
2023-03-30T16:07:21.298Z,57.30
2023-03-30T16:09:48.336Z,48.67
2023-03-30T16:12:46.443Z,54.85
2023-03-30T16:15:18.673Z,56.20
2023-03-30T16:17:47.071Z,59.95
2023-03-30T16:20:38.232Z,56.65
2023-03-30T16:23:05.249Z,53.60
2023-03-30T16:25:44.923Z,51.88
2023-03-30T16:28:15.707Z,52.67
2023-03-30T16:30:43.229Z,54.50
2023-03-30T16:33:10.824Z,64.20
2023-03-30T16:43:04.015Z,54.38
2023-03-30T16:45:31.488Z,52.53
2023-03-30T16:49:05.137Z,51.97
2023-03-30T16:51:32.327Z,52.95
2023-03-30T16:53:59.357Z,47.75
2023-03-30T16:59:35.788Z,59.95
2023-03-30T17:02:42.318Z,57.17
2023-03-30T17:05:14.906Z,541.28
2023-03-30T17:07:48.293Z,286.23
2023-03-30T17:10:45.520Z,177.93
2023-03-30T17:13:22.931Z,93.72
2023-03-30T17:16:01.262Z,74.32
2023-03-30T17:21:29.408Z,67.93
2023-03-30T17:58:46.846Z,97.93
2023-03-30T18:21:18.427Z,76.82
2023-03-30T18:24:03.882Z,88.05
2023-03-30T18:28:57.736Z,88.82
2023-03-30T18:46:07.316Z,90.55
2023-03-30T18:48:39.566Z,97.50
2023-03-30T18:51:29.624Z,101.30
2023-03-30T18:56:34.850Z,100.70
2023-03-30T18:59:09.927Z,108.00
2023-03-30T19:01:50.720Z,120.55
2023-03-30T19:04:42.199Z,113.07
2023-03-30T19:07:10.483Z,118.40
2023-03-30T19:09:43.359Z,107.53
2023-03-30T19:12:12.955Z,104.30
2023-03-30T19:14:48.838Z,100.85
2023-03-30T19:17:20.025Z,105.03
2023-03-30T19:19:48.241Z,94.97
2023-03-30T19:22:31.882Z,104.47
2023-03-30T19:25:06.958Z,104.00
2023-03-30T19:30:22.490Z,82.20
2023-03-30T19:46:14.846Z,88.70
2023-03-30T19:54:38.998Z,69.55
2023-03-30T19:57:09.571Z,68.43
2023-03-30T19:59:41.993Z,58.55
2023-03-30T20:02:18.316Z,103.15
2023-03-30T20:04:51.304Z,71.15
2023-03-30T20:07:19.431Z,62.92
2023-03-30T20:09:47.012Z,61.45
2023-03-30T20:12:14.733Z,60.97
2023-03-30T20:14:43.093Z,59.60
2023-03-30T20:17:11.830Z,63.72
2023-03-30T20:22:11.390Z,61.90
2023-03-30T20:24:39.563Z,66.60
2023-03-30T20:27:07.106Z,64.53
2023-03-30T20:29:34.094Z,74.90
2023-03-30T20:32:01.135Z,81.93
2023-03-30T20:34:35.626Z,86.32
2023-03-30T20:37:04.715Z,74.95
2023-03-30T20:39:36.107Z,27.25
2023-03-30T20:42:08.962Z,37.83
2023-03-30T20:44:39.965Z,25.77
2023-03-30T20:47:10.208Z,31.67
2023-03-30T20:49:44.496Z,17.92
2023-03-30T20:52:26.248Z,16.88
2023-03-30T20:54:56.597Z,14.25
2023-03-30T20:57:28.152Z,16.38
2023-03-30T20:59:57.019Z,18.73
2023-03-30T21:05:03.103Z,7.03
2023-03-30T21:10:07.578Z,2.60
2023-03-30T21:15:02.919Z,1.10
2023-03-30T21:17:30.337Z,3.33
2023-03-30T21:19:57.733Z,2.47
2023-03-30T21:22:25.221Z,3.25
2023-03-30T21:24:52.468Z,2.38
2023-03-30T21:27:19.507Z,2.05
2023-03-30T21:29:49.908Z,1.58
2023-03-30T21:32:17.448Z,3.58
2023-03-30T21:34:45.334Z,5.40
2023-03-30T21:37:14.570Z,1.98
2023-03-30T21:39:44.465Z,3.60
2023-03-30T21:42:13.325Z,5.85
2023-03-30T21:44:41.865Z,4.85
2023-03-30T21:47:15.979Z,2.08
2023-03-30T21:49:44.426Z,3.92
2023-03-30T21:52:12.075Z,9.70
2023-03-30T21:54:42.722Z,7.45
2023-03-30T21:57:11.271Z,9.18
2023-03-30T21:59:41.338Z,15.57
2023-03-30T22:10:08.383Z,15.93
2023-03-30T22:12:36.410Z,10.50
2023-03-30T22:15:05.005Z,28.90
2023-03-30T22:17:54.659Z,22.25
2023-03-30T22:20:23.921Z,33.90
2023-03-30T22:25:19.389Z,15.05
2023-03-30T22:27:46.418Z,33.78
2023-03-30T22:30:14.060Z,31.00
2023-03-30T22:32:47.223Z,8.43
2023-03-30T22:35:14.684Z,5.93
2023-03-30T22:37:42.318Z,12.90
2023-03-30T22:40:10.218Z,5.57
2023-03-30T22:42:38.098Z,4.85
2023-03-30T22:45:06.749Z,2.50
2023-03-30T22:47:36.116Z,4.35
2023-03-30T22:50:05.456Z,7.25
2023-03-30T22:52:35.508Z,5.15
2023-03-30T22:55:03.096Z,3.03
2023-03-30T22:57:32.956Z,3.50
2023-03-30T23:00:08.564Z,4.85
2023-03-30T23:02:39.439Z,3.17
2023-03-30T23:05:08.268Z,2.85
2023-03-30T23:07:37.114Z,3.13
2023-03-30T23:10:04.947Z,4.28
2023-03-30T23:12:34.069Z,3.45
2023-03-30T23:17:36.527Z,4.03
2023-03-30T23:20:05.727Z,3.40
2023-03-30T23:25:00.113Z,6.18
2023-03-30T23:27:27.039Z,5.55
2023-03-30T23:29:54.134Z,4.57
2023-03-30T23:32:21.429Z,5.13
2023-03-30T23:34:48.814Z,5.22
2023-03-30T23:37:16.054Z,5.32
2023-03-30T23:39:48.958Z,5.55
2023-03-30T23:42:18.159Z,6.70
2023-03-30T23:47:13.183Z,5.63
2023-03-30T23:49:42.226Z,6.05
2023-03-30T23:54:45.724Z,11.07
2023-03-30T23:57:22.074Z,6.97
2023-03-30T23:59:52.644Z,8.27
